sensor_id;sensor_type;location;lat;lon;timestamp;pressure;altitude;pressure_sealevel;temperature;humidity
18755;BME280;35061;47.664;9.166;2022-12-13T00:01:45;100699.95;;;-3.86;74.76
18755;BME280;35061;47.664;9.166;2022-12-13T00:04:13;100695.96;;;-3.92;74.65
18755;BME280;35061;47.664;9.166;2022-12-13T00:06:41;100694.75;;;-3.84;74.95
18755;BME280;35061;47.664;9.166;2022-12-13T00:09:11;100695.18;;;-3.82;74.52
18755;BME280;35061;47.664;9.166;2022-12-13T00:11:40;100686.77;;;-3.74;74.51
18755;BME280;35061;47.664;9.166;2022-12-13T00:14:08;100692.37;;;-3.78;73.44
18755;BME280;35061;47.664;9.166;2022-12-13T00:16:35;100687.52;;;-3.88;73.80
18755;BME280;35061;47.664;9.166;2022-12-13T00:19:04;100684.32;;;-4.01;73.21
18755;BME280;35061;47.664;9.166;2022-12-13T00:21:32;100687.85;;;-4.19;73.38
18755;BME280;35061;47.664;9.166;2022-12-13T00:24:00;100685.47;;;-4.17;74.23
18755;BME280;35061;47.664;9.166;2022-12-13T00:26:29;100681.87;;;-4.17;73.98
18755;BME280;35061;47.664;9.166;2022-12-13T00:29:03;100673.89;;;-4.19;73.70
18755;BME280;35061;47.664;9.166;2022-12-13T00:31:31;100672.65;;;-4.25;74.36
18755;BME280;35061;47.664;9.166;2022-12-13T00:34:19;100677.06;;;-4.28;74.31
18755;BME280;35061;47.664;9.166;2022-12-13T00:36:47;100673.86;;;-4.30;74.30
18755;BME280;35061;47.664;9.166;2022-12-13T00:39:15;100668.23;;;-4.37;74.06
18755;BME280;35061;47.664;9.166;2022-12-13T00:41:44;100671.41;;;-4.46;74.06
18755;BME280;35061;47.664;9.166;2022-12-13T00:44:12;100665.75;;;-4.57;73.98
18755;BME280;35061;47.664;9.166;2022-12-13T00:46:41;100663.75;;;-4.60;74.43
18755;BME280;35061;47.664;9.166;2022-12-13T00:49:09;100661.34;;;-4.62;73.88
18755;BME280;35061;47.664;9.166;2022-12-13T00:51:38;100664.08;;;-4.69;74.51
18755;BME280;35061;47.664;9.166;2022-12-13T00:54:06;100669.31;;;-4.64;74.87
18755;BME280;35061;47.664;9.166;2022-12-13T00:56:36;100665.68;;;-4.68;74.84
18755;BME280;35061;47.664;9.166;2022-12-13T00:59:04;100659.34;;;-4.65;74.73
18755;BME280;35061;47.664;9.166;2022-12-13T01:01:33;100656.13;;;-4.67;74.31
18755;BME280;35061;47.664;9.166;2022-12-13T01:04:04;100651.66;;;-4.79;74.41
18755;BME280;35061;47.664;9.166;2022-12-13T01:06:36;100647.30;;;-4.72;75.07
18755;BME280;35061;47.664;9.166;2022-12-13T01:09:07;100649.27;;;-4.77;74.34
18755;BME280;35061;47.664;9.166;2022-12-13T01:11:36;100644.07;;;-4.78;75.31
18755;BME280;35061;47.664;9.166;2022-12-13T01:14:04;100638.51;;;-4.71;74.87
18755;BME280;35061;47.664;9.166;2022-12-13T01:16:32;100648.48;;;-4.77;74.77
18755;BME280;35061;47.664;9.166;2022-12-13T01:18:59;100645.70;;;-4.77;75.07
18755;BME280;35061;47.664;9.166;2022-12-13T01:21:27;100639.69;;;-4.76;75.49
18755;BME280;35061;47.664;9.166;2022-12-13T01:24:00;100630.53;;;-4.69;75.38
18755;BME280;35061;47.664;9.166;2022-12-13T01:26:29;100635.34;;;-4.73;75.06
18755;BME280;35061;47.664;9.166;2022-12-13T01:28:57;100630.56;;;-4.72;75.42
18755;BME280;35061;47.664;9.166;2022-12-13T01:31:25;100622.95;;;-4.72;75.31
18755;BME280;35061;47.664;9.166;2022-12-13T01:33:53;100615.36;;;-4.68;75.02
18755;BME280;35061;47.664;9.166;2022-12-13T01:36:22;100613.40;;;-4.64;75.03
18755;BME280;35061;47.664;9.166;2022-12-13T01:38:55;100616.60;;;-4.62;74.86
18755;BME280;35061;47.664;9.166;2022-12-13T01:41:25;100616.60;;;-4.62;74.41
18755;BME280;35061;47.664;9.166;2022-12-13T01:44:05;100611.04;;;-4.54;74.55
18755;BME280;35061;47.664;9.166;2022-12-13T01:46:34;100615.39;;;-4.60;74.06
18755;BME280;35061;47.664;9.166;2022-12-13T01:49:14;100620.98;;;-4.64;73.93
18755;BME280;35061;47.664;9.166;2022-12-13T01:54:18;100621.77;;;-4.67;74.14
18755;BME280;35061;47.664;9.166;2022-12-13T01:56:54;100623.34;;;-4.77;73.90
18755;BME280;35061;47.664;9.166;2022-12-13T01:59:26;100620.85;;;-4.93;73.71
18755;BME280;35061;47.664;9.166;2022-12-13T02:01:54;100621.21;;;-5.02;73.88
18755;BME280;35061;47.664;9.166;2022-12-13T02:04:30;100621.60;;;-5.03;74.14
18755;BME280;35061;47.664;9.166;2022-12-13T02:06:59;100618.37;;;-5.13;74.54
18755;BME280;35061;47.664;9.166;2022-12-13T02:09:27;100614.84;;;-5.02;75.07
18755;BME280;35061;47.664;9.166;2022-12-13T02:11:55;100602.41;;;-5.09;74.30
18755;BME280;35061;47.664;9.166;2022-12-13T02:14:23;100605.61;;;-5.07;74.60
18755;BME280;35061;47.664;9.166;2022-12-13T02:17:15;100597.63;;;-5.08;74.86
18755;BME280;35061;47.664;9.166;2022-12-13T02:22:53;100596.06;;;-5.02;74.39
18755;BME280;35061;47.664;9.166;2022-12-13T02:26:06;100595.67;;;-5.00;75.00
18755;BME280;35061;47.664;9.166;2022-12-13T02:34:08;100606.16;;;-4.72;74.45
18755;BME280;35061;47.664;9.166;2022-12-13T02:36:40;100597.77;;;-4.79;73.42
18755;BME280;35061;47.664;9.166;2022-12-13T02:39:17;100586.58;;;-4.83;73.86
18755;BME280;35061;47.664;9.166;2022-12-13T02:42:04;100583.02;;;-4.76;73.88
18755;BME280;35061;47.664;9.166;2022-12-13T02:44:56;100589.00;;;-4.74;73.88
18755;BME280;35061;47.664;9.166;2022-12-13T02:47:29;100589.36;;;-4.79;73.52
18755;BME280;35061;47.664;9.166;2022-12-13T02:50:00;100584.98;;;-4.77;73.62
18755;BME280;35061;47.664;9.166;2022-12-13T02:52:30;100582.55;;;-4.85;73.07
18755;BME280;35061;47.664;9.166;2022-12-13T02:54:59;100577.78;;;-4.88;74.05
18755;BME280;35061;47.664;9.166;2022-12-13T02:57:27;100573.01;;;-4.81;74.26
18755;BME280;35061;47.664;9.166;2022-12-13T02:59:57;100571.87;;;-4.72;74.09
18755;BME280;35061;47.664;9.166;2022-12-13T03:08:15;100556.70;;;-4.60;73.23
18755;BME280;35061;47.664;9.166;2022-12-13T03:16:16;100557.54;;;-4.42;72.84
18755;BME280;35061;47.664;9.166;2022-12-13T03:18:51;100559.96;;;-4.44;72.44
18755;BME280;35061;47.664;9.166;2022-12-13T03:21:20;100553.55;;;-4.41;72.69
18755;BME280;35061;47.664;9.166;2022-12-13T03:23:48;100553.55;;;-4.41;72.59
18755;BME280;35061;47.664;9.166;2022-12-13T03:26:20;100552.77;;;-4.45;72.77
18755;BME280;35061;47.664;9.166;2022-12-13T03:28:48;100545.94;;;-4.55;72.31
18755;BME280;35061;47.664;9.166;2022-12-13T03:31:17;100548.35;;;-4.53;72.93
18755;BME280;35061;47.664;9.166;2022-12-13T03:33:45;100551.95;;;-4.56;72.59
18755;BME280;35061;47.664;9.166;2022-12-13T03:36:13;100546.30;;;-4.71;72.09
18755;BME280;35061;47.664;9.166;2022-12-13T03:38:41;100545.02;;;-4.88;72.53
18755;BME280;35061;47.664;9.166;2022-12-13T03:41:12;100543.81;;;-4.91;73.59
18755;BME280;35061;47.664;9.166;2022-12-13T03:43:40;100540.27;;;-4.80;73.94
18755;BME280;35061;47.664;9.166;2022-12-13T03:46:08;100535.54;;;-4.72;73.90
18755;BME280;35061;47.664;9.166;2022-12-13T03:48:36;100532.33;;;-4.67;73.09
18755;BME280;35061;47.664;9.166;2022-12-13T03:51:04;100534.33;;;-4.60;72.68
18755;BME280;35061;47.664;9.166;2022-12-13T03:53:32;100529.48;;;-4.74;72.41
18755;BME280;35061;47.664;9.166;2022-12-13T03:56:02;100529.88;;;-4.83;72.75
18755;BME280;35061;47.664;9.166;2022-12-13T03:58:32;100532.23;;;-4.93;72.71
18755;BME280;35061;47.664;9.166;2022-12-13T04:01:07;100534.66;;;-4.87;73.32
18755;BME280;35061;47.664;9.166;2022-12-13T04:03:36;100542.63;;;-4.90;73.36
18755;BME280;35061;47.664;9.166;2022-12-13T04:06:04;100531.09;;;-4.84;73.35
18755;BME280;35061;47.664;9.166;2022-12-13T04:08:33;100531.09;;;-4.84;73.02
18755;BME280;35061;47.664;9.166;2022-12-13T04:11:01;100523.50;;;-4.87;72.93
18755;BME280;35061;47.664;9.166;2022-12-13T04:13:53;100534.62;;;-4.95;72.92
18755;BME280;35061;47.664;9.166;2022-12-13T04:16:22;100520.66;;;-4.95;72.97
18755;BME280;35061;47.664;9.166;2022-12-13T04:18:50;100527.49;;;-4.88;73.48
18755;BME280;35061;47.664;9.166;2022-12-13T04:21:18;100520.27;;;-4.97;72.77
18755;BME280;35061;47.664;9.166;2022-12-13T04:23:45;100517.84;;;-4.98;73.45
18755;BME280;35061;47.664;9.166;2022-12-13T04:26:13;100518.66;;;-4.91;73.37
18755;BME280;35061;47.664;9.166;2022-12-13T04:28:41;100522.33;;;-4.83;73.47
18755;BME280;35061;47.664;9.166;2022-12-13T04:31:11;100523.08;;;-4.86;73.24
18755;BME280;35061;47.664;9.166;2022-12-13T04:33:39;100521.90;;;-4.81;72.91
18755;BME280;35061;47.664;9.166;2022-12-13T04:36:06;100522.29;;;-4.86;72.60
18755;BME280;35061;47.664;9.166;2022-12-13T04:38:34;100524.65;;;-4.96;72.62
18755;BME280;35061;47.664;9.166;2022-12-13T04:41:14;100534.59;;;-5.02;72.69
18755;BME280;35061;47.664;9.166;2022-12-13T04:43:43;100541.78;;;-5.01;73.40
18755;BME280;35061;47.664;9.166;2022-12-13T04:46:10;100530.60;;;-5.01;73.17
18755;BME280;35061;47.664;9.166;2022-12-13T04:48:38;100533.80;;;-4.95;73.13
18755;BME280;35061;47.664;9.166;2022-12-13T04:51:06;100529.42;;;-4.96;72.55
18755;BME280;35061;47.664;9.166;2022-12-13T04:53:34;100533.38;;;-5.08;72.55
18755;BME280;35061;47.664;9.166;2022-12-13T04:56:03;100520.59;;;-5.13;72.42
18755;BME280;35061;47.664;9.166;2022-12-13T04:58:31;100522.55;;;-5.17;73.18
18755;BME280;35061;47.664;9.166;2022-12-13T05:00:59;100510.20;;;-5.12;72.77
18755;BME280;35061;47.664;9.166;2022-12-13T05:03:27;100515.00;;;-5.13;73.24
18755;BME280;35061;47.664;9.166;2022-12-13T05:05:54;100511.44;;;-5.10;72.79
18755;BME280;35061;47.664;9.166;2022-12-13T05:08:23;100515.00;;;-5.16;72.35
18755;BME280;35061;47.664;9.166;2022-12-13T05:10:53;100519.35;;;-5.23;72.77
18755;BME280;35061;47.664;9.166;2022-12-13T05:13:20;100512.94;;;-5.27;72.22
18755;BME280;35061;47.664;9.166;2022-12-13T05:15:59;100522.52;;;-5.28;72.68
18755;BME280;35061;47.664;9.166;2022-12-13T05:18:28;100520.88;;;-5.36;72.13
18755;BME280;35061;47.664;9.166;2022-12-13T05:21:01;100526.80;;;-5.49;72.33
18755;BME280;35061;47.664;9.166;2022-12-13T05:23:30;100523.57;;;-5.54;72.69
18755;BME280;35061;47.664;9.166;2022-12-13T05:25:58;100520.79;;;-5.54;73.02
18755;BME280;35061;47.664;9.166;2022-12-13T05:28:27;100513.62;;;-5.52;72.99
18755;BME280;35061;47.664;9.166;2022-12-13T05:30:57;100511.99;;;-5.53;72.94
18755;BME280;35061;47.664;9.166;2022-12-13T05:33:25;100518.43;;;-5.49;73.02
18755;BME280;35061;47.664;9.166;2022-12-13T05:35:53;100514.41;;;-5.51;72.44
18755;BME280;35061;47.664;9.166;2022-12-13T05:38:27;100520.76;;;-5.58;72.90
18755;BME280;35061;47.664;9.166;2022-12-13T05:40:54;100517.95;;;-5.58;73.06
18755;BME280;35061;47.664;9.166;2022-12-13T05:43:22;100518.76;;;-5.61;72.97
18755;BME280;35061;47.664;9.166;2022-12-13T05:46:09;100519.55;;;-5.61;73.26
18755;BME280;35061;47.664;9.166;2022-12-13T05:48:37;100517.16;;;-5.58;73.31
18755;BME280;35061;47.664;9.166;2022-12-13T05:51:06;100514.80;;;-5.56;72.90
18755;BME280;35061;47.664;9.166;2022-12-13T05:53:40;100517.95;;;-5.58;72.96
18755;BME280;35061;47.664;9.166;2022-12-13T05:56:11;100509.21;;;-5.56;73.12
18755;BME280;35061;47.664;9.166;2022-12-13T05:58:48;100500.77;;;-5.64;71.99
18755;BME280;35061;47.664;9.166;2022-12-13T06:01:19;100514.34;;;-5.66;73.00
18755;BME280;35061;47.664;9.166;2022-12-13T06:03:46;100516.73;;;-5.61;73.21
18755;BME280;35061;47.664;9.166;2022-12-13T06:06:14;100513.53;;;-5.63;73.55
18755;BME280;35061;47.664;9.166;2022-12-13T06:08:44;100513.53;;;-5.66;73.18
18755;BME280;35061;47.664;9.166;2022-12-13T06:11:12;100512.25;;;-5.76;73.10
18755;BME280;35061;47.664;9.166;2022-12-13T06:13:57;100514.64;;;-5.75;73.51
18755;BME280;35061;47.664;9.166;2022-12-13T06:16:26;100512.65;;;-5.78;73.47
18755;BME280;35061;47.664;9.166;2022-12-13T06:18:54;100508.63;;;-5.84;73.27
18755;BME280;35061;47.664;9.166;2022-12-13T06:21:31;100508.63;;;-5.84;73.60
18755;BME280;35061;47.664;9.166;2022-12-13T06:24:13;100501.07;;;-5.80;73.79
18755;BME280;35061;47.664;9.166;2022-12-13T06:26:41;100499.83;;;-5.86;73.88
18755;BME280;35061;47.664;9.166;2022-12-13T06:29:16;100500.61;;;-5.89;73.83
18755;BME280;35061;47.664;9.166;2022-12-13T06:31:52;100501.01;;;-5.91;73.89
18755;BME280;35061;47.664;9.166;2022-12-13T06:34:27;100508.20;;;-5.86;74.44
18755;BME280;35061;47.664;9.166;2022-12-13T06:36:55;100511.37;;;-5.91;74.20
18755;BME280;35061;47.664;9.166;2022-12-13T06:39:26;100512.97;;;-5.90;74.49
18755;BME280;35061;47.664;9.166;2022-12-13T06:42:05;100523.34;;;-5.87;74.52
18755;BME280;35061;47.664;9.166;2022-12-13T06:44:34;100525.37;;;-5.84;74.43
18755;BME280;35061;47.664;9.166;2022-12-13T06:47:02;100523.73;;;-5.85;74.32
18755;BME280;35061;47.664;9.166;2022-12-13T06:49:38;100527.72;;;-5.86;74.22
18755;BME280;35061;47.664;9.166;2022-12-13T06:52:09;100533.67;;;-5.91;74.42
18755;BME280;35061;47.664;9.166;2022-12-13T06:54:39;100534.06;;;-5.93;74.67
18755;BME280;35061;47.664;9.166;2022-12-13T06:57:07;100530.47;;;-5.90;74.38
18755;BME280;35061;47.664;9.166;2022-12-13T06:59:35;100523.66;;;-5.96;73.87
18755;BME280;35061;47.664;9.166;2022-12-13T07:02:03;100526.05;;;-5.98;74.01
18755;BME280;35061;47.664;9.166;2022-12-13T07:04:31;100514.90;;;-6.01;73.74
18755;BME280;35061;47.664;9.166;2022-12-13T07:06:59;100516.47;;;-6.00;73.94
18755;BME280;35061;47.664;9.166;2022-12-13T07:09:31;100516.51;;;-5.97;73.81
18755;BME280;35061;47.664;9.166;2022-12-13T07:12:00;100521.28;;;-5.97;73.64
18755;BME280;35061;47.664;9.166;2022-12-13T07:14:30;100528.41;;;-5.48;73.93
18755;BME280;35061;47.664;9.166;2022-12-13T07:17:06;100531.12;;;-5.55;73.52
18755;BME280;35061;47.664;9.166;2022-12-13T07:19:34;100530.40;;;-5.44;73.56
18755;BME280;35061;47.664;9.166;2022-12-13T07:22:03;100536.78;;;-5.48;72.81
18755;BME280;35061;47.664;9.166;2022-12-13T07:24:34;100535.96;;;-5.52;72.90
18755;BME280;35061;47.664;9.166;2022-12-13T07:27:02;100539.95;;;-5.46;73.36
18755;BME280;35061;47.664;9.166;2022-12-13T07:29:30;100542.34;;;-5.48;73.49
18755;BME280;35061;47.664;9.166;2022-12-13T07:31:58;100550.71;;;-5.48;73.46
18755;BME280;35061;47.664;9.166;2022-12-13T07:34:27;100543.55;;;-5.49;73.42
18755;BME280;35061;47.664;9.166;2022-12-13T07:36:55;100552.77;;;-5.37;73.46
18755;BME280;35061;47.664;9.166;2022-12-13T07:39:24;100554.37;;;-5.36;72.63
18755;BME280;35061;47.664;9.166;2022-12-13T07:41:55;100556.37;;;-5.40;71.83
18755;BME280;35061;47.664;9.166;2022-12-13T07:44:23;100559.87;;;-5.47;72.15
18755;BME280;35061;47.664;9.166;2022-12-13T07:46:51;100559.83;;;-5.58;72.04
18755;BME280;35061;47.664;9.166;2022-12-13T07:49:19;100563.43;;;-5.54;72.63
18755;BME280;35061;47.664;9.166;2022-12-13T07:51:47;100565.85;;;-5.52;72.69
18755;BME280;35061;47.664;9.166;2022-12-13T07:54:15;100560.62;;;-5.61;72.06
18755;BME280;35061;47.664;9.166;2022-12-13T07:56:43;100554.14;;;-5.72;72.02
18755;BME280;35061;47.664;9.166;2022-12-13T07:59:11;100562.91;;;-5.74;72.39
18755;BME280;35061;47.664;9.166;2022-12-13T08:01:39;100566.93;;;-5.71;72.76
18755;BME280;35061;47.664;9.166;2022-12-13T08:04:07;100570.10;;;-5.69;72.42
18755;BME280;35061;47.664;9.166;2022-12-13T08:06:36;100573.30;;;-5.67;72.42
18755;BME280;35061;47.664;9.166;2022-12-13T08:09:05;100572.98;;;-5.62;72.59
18755;BME280;35061;47.664;9.166;2022-12-13T08:11:33;100571.80;;;-5.57;72.10
18755;BME280;35061;47.664;9.166;2022-12-13T08:14:01;100572.59;;;-5.57;71.59
18755;BME280;35061;47.664;9.166;2022-12-13T08:16:28;100577.39;;;-5.57;71.89
18755;BME280;35061;47.664;9.166;2022-12-13T08:18:57;100578.14;;;-5.61;72.39
18755;BME280;35061;47.664;9.166;2022-12-13T08:21:39;100570.59;;;-5.60;72.31
18755;BME280;35061;47.664;9.166;2022-12-13T08:24:28;100577.75;;;-5.59;72.21
18755;BME280;35061;47.664;9.166;2022-12-13T08:26:58;100580.50;;;-5.66;72.02
18755;BME280;35061;47.664;9.166;2022-12-13T08:29:31;100584.12;;;-5.62;72.53
18755;BME280;35061;47.664;9.166;2022-12-13T08:32:07;100582.92;;;-5.65;72.31
18755;BME280;35061;47.664;9.166;2022-12-13T08:34:36;100584.52;;;-5.64;72.26
18755;BME280;35061;47.664;9.166;2022-12-13T08:37:04;100593.74;;;-5.56;72.46
18755;BME280;35061;47.664;9.166;2022-12-13T08:39:34;100585.37;;;-5.52;72.39
18755;BME280;35061;47.664;9.166;2022-12-13T08:42:05;100586.19;;;-5.48;72.68
18755;BME280;35061;47.664;9.166;2022-12-13T08:44:48;100583.84;;;-5.46;72.32
18755;BME280;35061;47.664;9.166;2022-12-13T08:47:22;100589.42;;;-5.42;72.78
18755;BME280;35061;47.664;9.166;2022-12-13T08:49:53;100590.67;;;-5.36;72.93
18755;BME280;35061;47.664;9.166;2022-12-13T08:52:27;100596.65;;;-5.38;72.19
18755;BME280;35061;47.664;9.166;2022-12-13T08:54:55;100598.26;;;-5.33;72.66
18755;BME280;35061;47.664;9.166;2022-12-13T08:57:23;100600.31;;;-5.30;72.49
18755;BME280;35061;47.664;9.166;2022-12-13T08:59:51;100601.88;;;-5.29;71.92
18755;BME280;35061;47.664;9.166;2022-12-13T09:02:20;100602.31;;;-5.27;72.46
18755;BME280;35061;47.664;9.166;2022-12-13T09:04:48;100607.12;;;-5.24;72.79
18755;BME280;35061;47.664;9.166;2022-12-13T09:07:16;100605.16;;;-5.16;72.85
18755;BME280;35061;47.664;9.166;2022-12-13T09:09:43;100603.16;;;-5.15;72.51
18755;BME280;35061;47.664;9.166;2022-12-13T09:12:20;100612.35;;;-5.11;72.67
18755;BME280;35061;47.664;9.166;2022-12-13T09:14:56;100601.27;;;-5.00;72.71
18755;BME280;35061;47.664;9.166;2022-12-13T09:17:29;100609.70;;;-4.93;72.16
18755;BME280;35061;47.664;9.166;2022-12-13T09:20:04;100609.66;;;-4.90;72.65
18755;BME280;35061;47.664;9.166;2022-12-13T09:22:53;100624.97;;;-4.72;72.09
18755;BME280;35061;47.664;9.166;2022-12-13T09:25:28;100611.01;;;-4.62;72.09
18755;BME280;35061;47.664;9.166;2022-12-13T09:28:02;100618.62;;;-4.51;72.11
18755;BME280;35061;47.664;9.166;2022-12-13T09:30:30;100620.63;;;-4.48;71.03
18755;BME280;35061;47.664;9.166;2022-12-13T09:32:57;100615.48;;;-4.39;71.84
18755;BME280;35061;47.664;9.166;2022-12-13T09:35:45;100610.68;;;-4.31;71.00
18755;BME280;35061;47.664;9.166;2022-12-13T09:38:13;100608.36;;;-4.14;71.60
18755;BME280;35061;47.664;9.166;2022-12-13T09:40:43;100595.97;;;-4.06;71.11
18755;BME280;35061;47.664;9.166;2022-12-13T09:43:19;100597.99;;;-3.96;71.14
18755;BME280;35061;47.664;9.166;2022-12-13T09:46:04;100602.38;;;-3.84;70.19
18755;BME280;35061;47.664;9.166;2022-12-13T09:48:50;100603.20;;;-3.76;70.12
18755;BME280;35061;47.664;9.166;2022-12-13T09:51:28;100603.59;;;-3.67;69.19
18755;BME280;35061;47.664;9.166;2022-12-13T09:54:15;100606.01;;;-3.61;67.77
18755;BME280;35061;47.664;9.166;2022-12-13T09:56:44;100599.59;;;-3.55;67.65
18755;BME280;35061;47.664;9.166;2022-12-13T09:59:28;100595.97;;;-3.48;68.94
18755;BME280;35061;47.664;9.166;2022-12-13T10:02:14;100595.57;;;-3.43;68.33
18755;BME280;35061;47.664;9.166;2022-12-13T10:04:43;100589.98;;;-3.39;67.22
18755;BME280;35061;47.664;9.166;2022-12-13T10:07:22;100593.19;;;-3.33;68.57
18755;BME280;35061;47.664;9.166;2022-12-13T10:09:59;100588.74;;;-3.20;68.25
18755;BME280;35061;47.664;9.166;2022-12-13T10:12:28;100575.89;;;-3.10;68.94
18755;BME280;35061;47.664;9.166;2022-12-13T10:14:59;100561.47;;;-3.01;68.80
18755;BME280;35061;47.664;9.166;2022-12-13T10:17:35;100564.67;;;-3.03;69.12
18755;BME280;35061;47.664;9.166;2022-12-13T10:20:05;100566.24;;;-2.95;68.14
18755;BME280;35061;47.664;9.166;2022-12-13T10:22:33;100564.21;;;-2.87;68.71
18755;BME280;35061;47.664;9.166;2022-12-13T10:25:04;100558.63;;;-2.87;68.95
18755;BME280;35061;47.664;9.166;2022-12-13T10:27:38;100559.37;;;-2.83;68.26
18755;BME280;35061;47.664;9.166;2022-12-13T10:30:18;100568.98;;;-2.80;68.96
18755;BME280;35061;47.664;9.166;2022-12-13T10:35:25;100568.20;;;-2.81;68.66
18755;BME280;35061;47.664;9.166;2022-12-13T10:37:55;100559.37;;;-2.75;68.80
18755;BME280;35061;47.664;9.166;2022-12-13T10:40:34;100557.38;;;-2.78;68.79
18755;BME280;35061;47.664;9.166;2022-12-13T10:43:11;100549.37;;;-2.84;68.86
18755;BME280;35061;47.664;9.166;2022-12-13T10:45:40;100548.16;;;-2.79;68.63
18755;BME280;35061;47.664;9.166;2022-12-13T10:48:20;100549.37;;;-2.80;68.59
18755;BME280;35061;47.664;9.166;2022-12-13T10:50:59;100543.35;;;-2.78;68.74
18755;BME280;35061;47.664;9.166;2022-12-13T10:53:37;100549.37;;;-2.80;68.86
18755;BME280;35061;47.664;9.166;2022-12-13T10:56:15;100544.56;;;-2.79;68.60
18755;BME280;35061;47.664;9.166;2022-12-13T10:59:14;100547.73;;;-2.74;69.18
18755;BME280;35061;47.664;9.166;2022-12-13T11:01:49;100552.08;;;-2.62;70.27
18755;BME280;35061;47.664;9.166;2022-12-13T11:04:31;100541.59;;;-2.50;72.20
18755;BME280;35061;47.664;9.166;2022-12-13T11:07:41;100551.76;;;-2.07;85.86
18755;BME280;35061;47.664;9.166;2022-12-13T11:10:26;100549.76;;;-1.61;81.56
18755;BME280;35061;47.664;9.166;2022-12-13T11:13:00;100548.29;;;-1.31;78.37
18755;BME280;35061;47.664;9.166;2022-12-13T11:15:32;100543.05;;;-0.94;77.02
18755;BME280;35061;47.664;9.166;2022-12-13T11:18:05;100545.67;;;-0.80;76.93
18755;BME280;35061;47.664;9.166;2022-12-13T11:20:36;100535.93;;;-0.72;75.31
18755;BME280;35061;47.664;9.166;2022-12-13T11:23:14;100538.28;;;-0.66;74.19
18755;BME280;35061;47.664;9.166;2022-12-13T11:25:46;100528.77;;;-0.76;70.46
18755;BME280;35061;47.664;9.166;2022-12-13T11:31:12;100523.11;;;-0.73;71.39
18755;BME280;35061;47.664;9.166;2022-12-13T11:47:27;100518.83;;;0.90;73.18
18755;BME280;35061;47.664;9.166;2022-12-13T11:49:58;100512.05;;;0.87;70.60
18755;BME280;35061;47.664;9.166;2022-12-13T11:52:30;100514.41;;;1.09;73.77
18755;BME280;35061;47.664;9.166;2022-12-13T11:57:55;100503.45;;;1.31;66.14
18755;BME280;35061;47.664;9.166;2022-12-13T12:00:34;100506.89;;;1.22;66.54
18755;BME280;35061;47.664;9.166;2022-12-13T12:03:26;100512.05;;;1.44;69.09
18755;BME280;35061;47.664;9.166;2022-12-13T12:06:19;100497.70;;;1.55;66.74
18755;BME280;35061;47.664;9.166;2022-12-13T12:09:06;100501.01;;;1.33;60.81
18755;BME280;35061;47.664;9.166;2022-12-13T12:16:57;100491.33;;;0.53;61.69
18755;BME280;35061;47.664;9.166;2022-12-13T12:19:29;100493.88;;;0.24;60.99
18755;BME280;35061;47.664;9.166;2022-12-13T12:28:00;100489.98;;;-0.34;60.82
18755;BME280;35061;47.664;9.166;2022-12-13T12:33:24;100491.13;;;-0.59;62.30
18755;BME280;35061;47.664;9.166;2022-12-13T12:39:16;100489.07;;;-0.82;61.80
18755;BME280;35061;47.664;9.166;2022-12-13T12:42:14;100492.83;;;-0.92;61.32
18755;BME280;35061;47.664;9.166;2022-12-13T12:44:56;100499.01;;;-1.05;62.30
18755;BME280;35061;47.664;9.166;2022-12-13T12:48:29;100497.47;;;-1.13;62.85
18755;BME280;35061;47.664;9.166;2022-12-13T12:50:57;100498.81;;;-1.25;61.20
18755;BME280;35061;47.664;9.166;2022-12-13T12:58:56;100499.50;;;-1.48;62.88
18755;BME280;35061;47.664;9.166;2022-12-13T13:04:44;100492.01;;;-1.62;62.03
18755;BME280;35061;47.664;9.166;2022-12-13T13:07:26;100486.35;;;-1.59;64.51
18755;BME280;35061;47.664;9.166;2022-12-13T13:10:05;100492.77;;;-1.58;62.98
18755;BME280;35061;47.664;9.166;2022-12-13T13:12:50;100493.41;;;-1.43;65.05
18755;BME280;35061;47.664;9.166;2022-12-13T13:18:48;100489.07;;;-1.13;64.28
18755;BME280;35061;47.664;9.166;2022-12-13T13:26:47;100492.17;;;-1.04;62.71
18755;BME280;35061;47.664;9.166;2022-12-13T13:31:57;100489.79;;;-1.09;61.26
18755;BME280;35061;47.664;9.166;2022-12-13T13:34:45;100502.73;;;-1.15;61.97
18755;BME280;35061;47.664;9.166;2022-12-13T13:39:55;100483.45;;;-1.13;61.82
18755;BME280;35061;47.664;9.166;2022-12-13T13:42:24;100483.38;;;-1.09;62.70
18755;BME280;35061;47.664;9.166;2022-12-13T13:44:55;100491.03;;;-1.10;62.73
18755;BME280;35061;47.664;9.166;2022-12-13T13:47:33;100491.39;;;-1.08;62.48
18755;BME280;35061;47.664;9.166;2022-12-13T13:50:15;100499.40;;;-1.06;62.38
18755;BME280;35061;47.664;9.166;2022-12-13T13:53:17;100497.02;;;-1.08;62.57
18755;BME280;35061;47.664;9.166;2022-12-13T14:22:10;100507.09;;;-1.45;62.67
18755;BME280;35061;47.664;9.166;2022-12-13T14:27:42;100495.48;;;-1.47;62.26
18755;BME280;35061;47.664;9.166;2022-12-13T14:30:14;100504.70;;;-1.50;62.87
18755;BME280;35061;47.664;9.166;2022-12-13T14:32:55;100503.91;;;-1.51;63.03
18755;BME280;35061;47.664;9.166;2022-12-13T14:35:27;100505.52;;;-1.50;62.78
18755;BME280;35061;47.664;9.166;2022-12-13T14:38:05;100493.81;;;-1.45;63.01
18755;BME280;35061;47.664;9.166;2022-12-13T14:40:37;100493.91;;;-1.52;61.67
18755;BME280;35061;47.664;9.166;2022-12-13T14:43:29;100499.14;;;-1.54;62.72
18755;BME280;35061;47.664;9.166;2022-12-13T14:45:59;100499.60;;;-1.59;61.83
18755;BME280;35061;47.664;9.166;2022-12-13T14:48:31;100492.41;;;-1.64;62.48
18755;BME280;35061;47.664;9.166;2022-12-13T14:51:00;100494.01;;;-1.63;62.21
18755;BME280;35061;47.664;9.166;2022-12-13T14:53:37;100493.65;;;-1.69;62.60
18755;BME280;35061;47.664;9.166;2022-12-13T14:56:10;100479.29;;;-1.74;62.70
18755;BME280;35061;47.664;9.166;2022-12-13T14:58:59;100486.91;;;-1.75;63.53
18755;BME280;35061;47.664;9.166;2022-12-13T15:01:36;100488.88;;;-1.72;63.57
18755;BME280;35061;47.664;9.166;2022-12-13T15:04:27;100486.84;;;-1.71;63.68
18755;BME280;35061;47.664;9.166;2022-12-13T15:09:44;100499.30;;;-1.72;63.42
18755;BME280;35061;47.664;9.166;2022-12-13T15:12:15;100511.77;;;-1.73;63.03
18755;BME280;35061;47.664;9.166;2022-12-13T15:15:00;100502.15;;;-1.76;63.72
18755;BME280;35061;47.664;9.166;2022-12-13T15:17:35;100503.36;;;-1.77;63.62